createdAt,value
2022-12-11T00:01:55.370Z,0.93
2022-12-11T00:04:21.658Z,0.95
2022-12-11T00:06:48.014Z,0.95
2022-12-11T00:09:14.276Z,0.87
2022-12-11T00:11:40.566Z,1.01
2022-12-11T00:14:06.963Z,0.98
2022-12-11T00:16:33.296Z,0.80
2022-12-11T00:18:59.640Z,0.76
2022-12-11T00:21:25.970Z,0.73
2022-12-11T00:23:52.262Z,0.45
2022-12-11T00:26:18.590Z,0.45
2022-12-11T00:28:44.921Z,0.42
2022-12-11T00:31:11.216Z,0.40
2022-12-11T00:33:37.491Z,0.42
2022-12-11T00:36:03.801Z,0.47
2022-12-11T00:38:30.165Z,0.55
2022-12-11T00:40:56.422Z,0.55
2022-12-11T00:43:22.735Z,0.18
2022-12-11T00:45:49.182Z,-0.14
2022-12-11T00:48:15.565Z,0.11
2022-12-11T00:50:41.895Z,0.27
2022-12-11T00:53:08.177Z,0.37
2022-12-11T00:55:34.467Z,0.41
2022-12-11T00:58:00.799Z,0.43
2022-12-11T01:00:27.086Z,0.48
2022-12-11T01:02:53.414Z,0.53
2022-12-11T01:05:19.759Z,0.43
2022-12-11T01:07:46.122Z,0.50
2022-12-11T01:10:12.435Z,0.41
2022-12-11T01:12:38.798Z,0.39
2022-12-11T01:15:05.129Z,0.35
2022-12-11T01:17:31.416Z,0.33
2022-12-11T01:19:57.757Z,0.37
2022-12-11T01:22:24.070Z,0.36
2022-12-11T01:24:50.373Z,0.37
2022-12-11T01:27:16.705Z,0.37
2022-12-11T01:29:43.052Z,0.37
2022-12-11T01:32:09.344Z,0.37
2022-12-11T01:34:35.667Z,0.46
2022-12-11T01:37:01.958Z,0.33
2022-12-11T01:39:28.309Z,0.38
2022-12-11T01:41:54.584Z,0.37
2022-12-11T01:44:20.912Z,0.38
2022-12-11T01:46:47.253Z,0.34
2022-12-11T01:49:13.571Z,0.36
2022-12-11T01:51:39.899Z,0.34
2022-12-11T01:54:06.197Z,0.35
2022-12-11T01:56:32.459Z,0.44
2022-12-11T01:58:58.781Z,0.38
2022-12-11T02:01:25.180Z,0.46
2022-12-11T02:03:51.474Z,0.44
2022-12-11T02:06:17.788Z,0.43
2022-12-11T02:08:44.123Z,0.40
2022-12-11T02:11:10.414Z,0.45
2022-12-11T02:13:36.756Z,0.50
2022-12-11T02:16:03.109Z,0.53
2022-12-11T02:18:29.409Z,0.54
2022-12-11T02:20:55.700Z,0.51
2022-12-11T02:23:22.100Z,0.51
2022-12-11T02:25:48.416Z,0.61
2022-12-11T02:28:14.693Z,0.64
2022-12-11T02:30:41.068Z,0.53
2022-12-11T02:33:07.352Z,0.48
2022-12-11T02:35:33.639Z,0.42
2022-12-11T02:38:00.025Z,0.44
2022-12-11T02:40:26.320Z,0.44
2022-12-11T02:42:52.581Z,0.54
2022-12-11T02:45:18.918Z,0.48
2022-12-11T02:47:45.733Z,0.47
2022-12-11T02:50:12.071Z,0.33
2022-12-11T02:52:38.402Z,0.44
2022-12-11T02:55:04.739Z,0.25
2022-12-11T02:57:31.013Z,0.25
2022-12-11T02:59:57.288Z,-0.06
2022-12-11T03:02:23.628Z,0.13
2022-12-11T03:04:50.017Z,-0.06
2022-12-11T03:07:16.340Z,-0.11
2022-12-11T03:09:42.622Z,-0.13
2022-12-11T03:12:08.893Z,-0.16
2022-12-11T03:14:36.641Z,-0.12
2022-12-11T03:17:02.933Z,-0.09
2022-12-11T03:19:29.216Z,-0.08
2022-12-11T03:21:55.531Z,-0.07
2022-12-11T03:24:21.797Z,-0.10
2022-12-11T03:26:48.781Z,-0.06
2022-12-11T03:29:17.127Z,0.02
2022-12-11T03:31:43.476Z,-0.10
2022-12-11T03:34:09.762Z,-0.02
2022-12-11T03:36:36.102Z,-0.35
2022-12-11T03:39:02.451Z,-0.72
2022-12-11T03:41:28.729Z,-1.44
2022-12-11T03:43:55.085Z,-1.78
2022-12-11T03:46:21.418Z,-1.40
2022-12-11T03:48:47.706Z,-0.98
2022-12-11T03:51:14.054Z,-0.71
2022-12-11T03:53:40.368Z,-0.55
2022-12-11T03:56:06.652Z,-0.51
2022-12-11T03:58:32.981Z,-0.36
2022-12-11T04:00:59.271Z,-0.26
2022-12-11T04:03:25.716Z,-0.20
2022-12-11T04:05:52.090Z,-0.19
2022-12-11T04:08:18.453Z,-0.02
2022-12-11T04:10:44.807Z,0.13
2022-12-11T04:13:31.127Z,0.17
2022-12-11T04:16:09.917Z,0.15
2022-12-11T04:18:50.929Z,0.16
2022-12-11T04:21:32.857Z,0.20
2022-12-11T04:24:01.453Z,0.07
2022-12-11T04:26:27.790Z,0.07
2022-12-11T04:28:54.080Z,-0.15
2022-12-11T04:31:20.424Z,-0.20
2022-12-11T04:33:46.811Z,-0.22
2022-12-11T04:36:13.120Z,-0.29
2022-12-11T04:38:39.430Z,-0.29
2022-12-11T04:41:05.760Z,-0.43
2022-12-11T04:43:32.047Z,-0.38
2022-12-11T04:45:58.335Z,-0.92
2022-12-11T04:48:24.739Z,-1.09
2022-12-11T04:50:51.008Z,-1.48
2022-12-11T04:53:17.279Z,-1.24
2022-12-11T04:55:43.585Z,-0.96
2022-12-11T04:58:09.873Z,-1.29
2022-12-11T05:00:36.153Z,-0.91
2022-12-11T05:03:02.538Z,-0.88
2022-12-11T05:05:28.920Z,-0.76
2022-12-11T05:07:55.182Z,-0.64
2022-12-11T05:10:21.516Z,-0.52
2022-12-11T05:12:47.851Z,-0.71
2022-12-11T05:15:14.227Z,-0.51
2022-12-11T05:17:40.561Z,-0.44
2022-12-11T05:20:07.017Z,-0.22
2022-12-11T05:22:33.273Z,-0.25
2022-12-11T05:24:59.603Z,-0.25
2022-12-11T05:27:25.907Z,-0.22
2022-12-11T05:29:57.784Z,-0.17
2022-12-11T05:32:25.755Z,-0.18
2022-12-11T05:34:52.036Z,-0.14
2022-12-11T05:37:18.333Z,-0.20
2022-12-11T05:39:44.686Z,-0.22
2022-12-11T05:42:11.041Z,-0.26
2022-12-11T05:44:37.349Z,-0.24
2022-12-11T05:47:03.686Z,-0.15
2022-12-11T05:49:31.221Z,-0.03
2022-12-11T05:51:57.544Z,-0.04
2022-12-11T05:54:23.865Z,-0.08
2022-12-11T05:56:50.198Z,-0.30
2022-12-11T05:59:16.478Z,-0.42
2022-12-11T06:01:42.960Z,-0.60
2022-12-11T06:04:09.428Z,-0.73
2022-12-11T06:06:35.684Z,-0.96
2022-12-11T06:09:02.027Z,-1.16
2022-12-11T06:11:28.326Z,-1.32
2022-12-11T06:13:54.629Z,-1.62
2022-12-11T06:16:21.014Z,-1.81
2022-12-11T06:18:47.332Z,-1.92
2022-12-11T06:21:13.603Z,-2.02
2022-12-11T06:23:40.191Z,-2.06
2022-12-11T06:26:06.499Z,-2.09
2022-12-11T06:28:32.807Z,-2.42
2022-12-11T06:30:59.138Z,-2.61
2022-12-11T06:33:25.438Z,-2.65
2022-12-11T06:35:51.704Z,-3.18
2022-12-11T06:38:18.258Z,-3.12
2022-12-11T06:40:44.589Z,-3.29
2022-12-11T06:43:10.878Z,-3.20
2022-12-11T06:45:37.244Z,-3.12
2022-12-11T06:48:03.617Z,-3.08
2022-12-11T06:50:29.897Z,-3.47
2022-12-11T06:52:56.258Z,-3.45
2022-12-11T06:55:22.643Z,-3.36
2022-12-11T06:57:48.901Z,-3.40
2022-12-11T07:00:15.249Z,-3.47
2022-12-11T07:02:41.599Z,-3.49
2022-12-11T07:05:08.064Z,-3.49
2022-12-11T07:07:34.491Z,-3.54
2022-12-11T07:10:07.592Z,-3.53
2022-12-11T07:12:34.888Z,-3.75
2022-12-11T07:15:01.281Z,-3.51
2022-12-11T07:17:27.559Z,-3.66
2022-12-11T07:19:53.886Z,-3.70
2022-12-11T07:22:20.177Z,-3.60
2022-12-11T07:24:46.436Z,-3.63
2022-12-11T07:27:12.753Z,-3.57
2022-12-11T07:29:39.099Z,-3.79
2022-12-11T07:32:05.461Z,-3.73
2022-12-11T07:34:31.848Z,-3.70
2022-12-11T07:36:58.215Z,-3.71
2022-12-11T07:39:24.503Z,-3.73
2022-12-11T07:41:50.776Z,-3.59
2022-12-11T07:44:17.165Z,-3.63
2022-12-11T07:46:43.467Z,-3.83
2022-12-11T07:49:09.788Z,-4.04
2022-12-11T07:51:36.137Z,-4.01
2022-12-11T07:54:02.440Z,-4.04
2022-12-11T07:56:28.723Z,-3.92
2022-12-11T07:58:55.039Z,-3.86
2022-12-11T08:01:21.399Z,-3.72
2022-12-11T08:03:47.741Z,-3.86
2022-12-11T08:06:14.072Z,-4.01
2022-12-11T08:08:40.408Z,-4.00
2022-12-11T08:11:06.735Z,-3.88
2022-12-11T08:13:33.087Z,-3.87
2022-12-11T08:15:59.603Z,-3.79
2022-12-11T08:18:25.880Z,-3.86
2022-12-11T08:20:52.258Z,-3.92
2022-12-11T08:23:18.569Z,-3.71
2022-12-11T08:25:44.836Z,-3.71
2022-12-11T08:28:11.143Z,-3.67
2022-12-11T08:30:37.470Z,-3.58
2022-12-11T08:33:03.729Z,-3.56
2022-12-11T08:35:30.061Z,-3.60
2022-12-11T08:37:56.352Z,-3.52
2022-12-11T08:40:22.646Z,-3.51
2022-12-11T08:42:49.023Z,-3.29
2022-12-11T08:45:15.390Z,-3.41
2022-12-11T08:47:41.731Z,-3.21
2022-12-11T08:50:08.039Z,-3.15
2022-12-11T08:52:34.435Z,-3.03
2022-12-11T08:55:00.731Z,-2.81
2022-12-11T08:57:27.078Z,-2.95
2022-12-11T08:59:53.476Z,-2.88
2022-12-11T09:02:19.773Z,-2.99
2022-12-11T09:04:46.108Z,-3.13
2022-12-11T09:07:12.410Z,-2.84
2022-12-11T09:09:38.726Z,-2.77
2022-12-11T09:12:05.006Z,-2.75
2022-12-11T09:14:31.326Z,-2.59
2022-12-11T09:16:57.602Z,-2.49
2022-12-11T09:19:26.676Z,-2.49
2022-12-11T09:21:57.147Z,-2.46
2022-12-11T09:24:23.423Z,-2.68
2022-12-11T09:26:49.680Z,-2.73
2022-12-11T09:29:16.017Z,-2.64
2022-12-11T09:31:42.380Z,-2.57
2022-12-11T09:34:08.633Z,-2.48
2022-12-11T09:36:34.967Z,-2.44
2022-12-11T09:39:01.269Z,-2.39
2022-12-11T09:41:27.628Z,-2.28
2022-12-11T09:43:53.959Z,-2.45
2022-12-11T09:46:23.585Z,-2.30
2022-12-11T09:48:51.037Z,-2.15
2022-12-11T09:51:17.364Z,-1.99
2022-12-11T09:53:43.752Z,-1.96
2022-12-11T09:56:10.023Z,-1.97
2022-12-11T09:58:36.362Z,-1.81
2022-12-11T10:01:02.756Z,-1.94
2022-12-11T10:03:29.121Z,-1.91
2022-12-11T10:05:59.587Z,-1.92
2022-12-11T10:08:29.122Z,-1.99
2022-12-11T10:10:55.523Z,-2.02
2022-12-11T10:13:21.775Z,-1.94
2022-12-11T10:15:48.176Z,-1.71
2022-12-11T10:18:14.576Z,-1.93
2022-12-11T10:20:40.849Z,-1.92
2022-12-11T10:23:07.172Z,-2.07
2022-12-11T10:25:33.500Z,-2.02
2022-12-11T10:27:59.768Z,-2.00
2022-12-11T10:30:28.408Z,-2.05
2022-12-11T10:32:58.089Z,-1.91
2022-12-11T10:35:24.404Z,-1.94
2022-12-11T10:37:50.684Z,-2.18
2022-12-11T10:40:16.992Z,-2.19
2022-12-11T10:42:45.708Z,-2.33
2022-12-11T10:45:12.192Z,-2.19
2022-12-11T10:47:38.703Z,-2.07
2022-12-11T10:50:04.967Z,-2.04
2022-12-11T10:52:31.271Z,-1.90
2022-12-11T10:54:57.643Z,-1.75
2022-12-11T10:57:23.971Z,-1.94
2022-12-11T10:59:50.347Z,-2.08
2022-12-11T11:02:16.843Z,-2.13
2022-12-11T11:04:43.112Z,-2.15
2022-12-11T11:07:09.423Z,-2.07
2022-12-11T11:09:35.757Z,-2.01
2022-12-11T11:12:07.610Z,-1.91
2022-12-11T11:14:34.496Z,-1.94
2022-12-11T11:17:00.849Z,-1.87
2022-12-11T11:19:27.120Z,-1.78
2022-12-11T11:21:53.412Z,-2.06
2022-12-11T11:24:19.815Z,-2.02
2022-12-11T11:27:12.372Z,-2.04
2022-12-11T11:29:32.527Z,-2.21
2022-12-11T11:31:58.837Z,-2.01
2022-12-11T11:34:25.120Z,-1.87
2022-12-11T11:36:51.482Z,-1.95
2022-12-11T11:39:17.765Z,-1.92
2022-12-11T11:41:44.092Z,-1.95
2022-12-11T11:44:10.622Z,-2.14
2022-12-11T11:46:37.039Z,-2.14
2022-12-11T11:49:03.402Z,-2.10
2022-12-11T11:51:29.827Z,-2.24
2022-12-11T11:53:56.096Z,-2.20
2022-12-11T11:56:22.426Z,-2.44
2022-12-11T11:58:48.768Z,-2.44
2022-12-11T12:01:15.032Z,-2.38
2022-12-11T12:03:41.353Z,-2.27
2022-12-11T12:06:12.049Z,-2.15
2022-12-11T12:08:41.054Z,-1.97
2022-12-11T12:11:07.334Z,-1.86
2022-12-11T12:13:50.168Z,-1.83
2022-12-11T12:16:44.106Z,-1.82
2022-12-11T12:19:03.101Z,-2.03
2022-12-11T12:21:29.399Z,-1.99
2022-12-11T12:23:55.660Z,-2.05
2022-12-11T12:26:21.955Z,-2.06
2022-12-11T12:28:48.248Z,-2.14
2022-12-11T12:31:14.600Z,-2.10
2022-12-11T12:33:41.000Z,-2.10
2022-12-11T12:36:07.531Z,-2.12
2022-12-11T12:38:33.848Z,-2.11
2022-12-11T12:41:00.188Z,-2.06
2022-12-11T12:43:26.543Z,-2.23
2022-12-11T12:45:52.920Z,-2.28
2022-12-11T12:48:19.233Z,-2.17
2022-12-11T12:50:45.509Z,-2.30
2022-12-11T12:53:11.767Z,-2.19
2022-12-11T12:55:38.104Z,-2.13
2022-12-11T12:58:04.376Z,-2.32
2022-12-11T13:00:30.639Z,-2.37
2022-12-11T13:02:57.056Z,-2.46
2022-12-11T13:05:23.367Z,-2.50
2022-12-11T13:07:54.025Z,-2.69
2022-12-11T13:10:20.843Z,-2.85
2022-12-11T13:12:47.115Z,-2.94
2022-12-11T13:15:13.581Z,-3.03
2022-12-11T13:17:40.114Z,-3.02
2022-12-11T13:20:06.449Z,-2.94
2022-12-11T13:22:32.728Z,-3.03
2022-12-11T13:24:59.060Z,-2.95
2022-12-11T13:27:25.349Z,-3.18
2022-12-11T13:29:51.688Z,-3.11
2022-12-11T13:32:17.975Z,-3.18
2022-12-11T13:34:44.344Z,-3.23
2022-12-11T13:37:10.662Z,-3.16
2022-12-11T13:39:36.927Z,-3.04
2022-12-11T13:42:03.316Z,-3.11
2022-12-11T13:44:29.603Z,-3.09
2022-12-11T13:46:55.887Z,-3.23
2022-12-11T13:49:22.215Z,-3.11
2022-12-11T13:51:48.523Z,-3.12
2022-12-11T13:54:16.951Z,-3.15
2022-12-11T13:56:43.690Z,-3.04
2022-12-11T13:59:09.995Z,-3.15
2022-12-11T14:01:36.275Z,-3.22
2022-12-11T14:04:02.609Z,-3.41
2022-12-11T14:06:28.884Z,-3.37
2022-12-11T14:08:55.162Z,-3.35
2022-12-11T14:11:21.430Z,-3.16
2022-12-11T14:13:47.754Z,-3.41
2022-12-11T14:16:14.073Z,-3.51
2022-12-11T14:18:40.379Z,-3.47
2022-12-11T14:21:06.670Z,-3.53
2022-12-11T14:23:32.995Z,-3.63
2022-12-11T14:25:59.324Z,-3.52
2022-12-11T14:28:25.758Z,-3.60
2022-12-11T14:30:52.128Z,-3.55
2022-12-11T14:33:18.433Z,-3.71
2022-12-11T14:35:44.698Z,-3.75
2022-12-11T14:38:11.034Z,-3.76
2022-12-11T14:40:37.384Z,-3.73
2022-12-11T14:43:03.633Z,-3.72
2022-12-11T14:45:29.988Z,-3.79
2022-12-11T14:47:56.387Z,-3.80
2022-12-11T14:50:22.652Z,-3.83
2022-12-11T14:52:49.001Z,-3.86
2022-12-11T14:55:15.303Z,-3.74
2022-12-11T14:57:41.569Z,-3.69
2022-12-11T15:00:07.913Z,-3.72
2022-12-11T15:02:34.257Z,-3.86
2022-12-11T15:05:00.558Z,-3.84
2022-12-11T15:07:26.880Z,-3.89
2022-12-11T15:09:53.171Z,-3.95
2022-12-11T15:12:19.439Z,-4.00
2022-12-11T15:14:45.752Z,-4.05
2022-12-11T15:17:12.067Z,-4.15
2022-12-11T15:19:38.411Z,-3.96
2022-12-11T15:22:04.744Z,-3.97
2022-12-11T15:24:31.069Z,-3.96
2022-12-11T15:26:57.412Z,-4.02
2022-12-11T15:29:23.741Z,-4.10
2022-12-11T15:31:50.061Z,-4.21
2022-12-11T15:34:16.418Z,-3.99
2022-12-11T15:36:42.773Z,-4.12
2022-12-11T15:39:09.116Z,-4.10
2022-12-11T15:41:35.531Z,-4.04
2022-12-11T15:44:01.790Z,-4.30
2022-12-11T15:46:28.101Z,-4.32
2022-12-11T15:48:54.560Z,-4.35
2022-12-11T15:51:20.887Z,-4.23
2022-12-11T15:53:47.170Z,-4.14
2022-12-11T15:56:13.503Z,-4.14
2022-12-11T15:58:39.819Z,-4.00
2022-12-11T16:01:06.150Z,-4.11
2022-12-11T16:03:32.495Z,-4.06
2022-12-11T16:05:58.804Z,-4.26
2022-12-11T16:08:25.162Z,-4.42
2022-12-11T16:10:51.598Z,-4.37
2022-12-11T16:13:17.983Z,-4.58
2022-12-11T16:15:44.429Z,-4.57
2022-12-11T16:18:11.005Z,-4.43
2022-12-11T16:20:37.288Z,-4.41
2022-12-11T16:23:03.551Z,-4.35
2022-12-11T16:25:29.891Z,-4.46
2022-12-11T16:27:56.221Z,-4.35
2022-12-11T16:30:22.559Z,-4.40
2022-12-11T16:32:48.887Z,-4.34
2022-12-11T16:35:15.256Z,-4.50
2022-12-11T16:37:41.551Z,-4.54
2022-12-11T16:40:07.864Z,-4.73
2022-12-11T16:42:34.249Z,-4.65
2022-12-11T16:45:00.487Z,-4.78
2022-12-11T16:47:27.556Z,-4.67
2022-12-11T16:49:53.909Z,-4.84
2022-12-11T16:52:22.348Z,-4.80
2022-12-11T16:54:48.836Z,-4.77
2022-12-11T16:57:15.105Z,-4.88
2022-12-11T16:59:41.371Z,-4.96
2022-12-11T17:02:07.696Z,-4.77
2022-12-11T17:04:33.983Z,-4.78
2022-12-11T17:07:00.231Z,-5.03
2022-12-11T17:09:26.564Z,-4.89
2022-12-11T17:11:52.887Z,-4.86
2022-12-11T17:14:19.152Z,-5.08
2022-12-11T17:16:45.461Z,-5.28
2022-12-11T17:19:11.755Z,-5.26
2022-12-11T17:21:38.027Z,-5.21
2022-12-11T17:24:04.359Z,-5.12
2022-12-11T17:26:30.656Z,-5.17
2022-12-11T17:28:56.955Z,-5.07
2022-12-11T17:31:23.325Z,-5.05
2022-12-11T17:33:49.773Z,-5.05
2022-12-11T17:36:16.047Z,-5.02
2022-12-11T17:38:42.405Z,-5.11
2022-12-11T17:41:08.775Z,-5.19
2022-12-11T17:43:35.055Z,-5.17
2022-12-11T17:46:01.447Z,-5.20
2022-12-11T17:48:27.755Z,-5.21
2022-12-11T17:50:54.027Z,-5.38
2022-12-11T17:53:20.369Z,-5.31
2022-12-11T17:55:46.786Z,-5.31
2022-12-11T17:58:13.098Z,-5.18
2022-12-11T18:00:39.439Z,-5.14
2022-12-11T18:03:05.822Z,-5.30
2022-12-11T18:05:32.089Z,-5.22
2022-12-11T18:07:58.519Z,-5.25
2022-12-11T18:10:24.892Z,-5.21
2022-12-11T18:12:51.226Z,-5.17
2022-12-11T18:15:17.558Z,-5.15
2022-12-11T18:17:43.831Z,-5.41
2022-12-11T18:20:10.277Z,-5.29
2022-12-11T18:22:36.605Z,-5.22
2022-12-11T18:25:09.565Z,-5.29
2022-12-11T18:27:36.642Z,-5.30
2022-12-11T18:30:02.935Z,-5.29
2022-12-11T18:32:29.212Z,-5.33
2022-12-11T18:34:55.609Z,-5.63
2022-12-11T18:37:27.574Z,-5.70
2022-12-11T18:39:54.327Z,-5.57
2022-12-11T18:42:35.915Z,-5.63
2022-12-11T18:45:02.251Z,-5.57
2022-12-11T18:47:28.620Z,-5.55
2022-12-11T18:49:54.983Z,-5.67
2022-12-11T18:52:21.272Z,-5.47
2022-12-11T18:54:47.616Z,-5.57
2022-12-11T18:57:13.928Z,-5.64
2022-12-11T18:59:40.277Z,-5.56
2022-12-11T19:02:06.705Z,-5.47
2022-12-11T19:04:33.059Z,-5.43
2022-12-11T19:06:59.354Z,-5.41
2022-12-11T19:09:25.677Z,-5.36
2022-12-11T19:11:51.975Z,-5.38
2022-12-11T19:14:18.232Z,-5.31
2022-12-11T19:16:44.615Z,-5.29
2022-12-11T19:19:10.957Z,-5.15
2022-12-11T19:21:37.212Z,-4.98
2022-12-11T19:24:03.531Z,-5.04
2022-12-11T19:26:29.844Z,-5.16
2022-12-11T19:28:56.111Z,-5.46
2022-12-11T19:31:22.527Z,-5.57
2022-12-11T19:33:48.875Z,-5.53
2022-12-11T19:36:15.153Z,-5.57
2022-12-11T19:38:41.482Z,-5.54
2022-12-11T19:41:07.775Z,-5.42
2022-12-11T19:43:34.058Z,-5.33
2022-12-11T19:46:00.339Z,-5.27
2022-12-11T19:48:26.694Z,-5.38
2022-12-11T19:50:53.001Z,-5.24
2022-12-11T19:53:19.259Z,-5.25
2022-12-11T19:55:45.583Z,-5.33
2022-12-11T19:58:12.267Z,-5.64
2022-12-11T20:00:38.565Z,-5.64
2022-12-11T20:03:05.050Z,-5.53
2022-12-11T20:05:32.560Z,-5.56
2022-12-11T20:08:14.312Z,-5.72
2022-12-11T20:10:45.239Z,-5.79
2022-12-11T20:13:11.535Z,-5.75
2022-12-11T20:15:37.821Z,-5.63
2022-12-11T20:18:04.166Z,-5.76
2022-12-11T20:20:30.647Z,-5.70
2022-12-11T20:22:57.272Z,-5.89
2022-12-11T20:25:23.817Z,-5.88
2022-12-11T20:27:50.101Z,-6.05
2022-12-11T20:30:16.383Z,-6.29
2022-12-11T20:32:42.757Z,-6.16
2022-12-11T20:35:09.240Z,-6.02
2022-12-11T20:37:35.577Z,-5.90
2022-12-11T20:40:01.836Z,-5.81
2022-12-11T20:42:28.094Z,-5.71
2022-12-11T20:44:54.349Z,-5.78
2022-12-11T20:47:20.729Z,-5.66
2022-12-11T20:49:47.060Z,-5.64
2022-12-11T20:52:13.311Z,-5.57
2022-12-11T20:54:39.654Z,-5.41
2022-12-11T20:57:06.001Z,-5.38
2022-12-11T20:59:32.293Z,-5.37
2022-12-11T21:01:58.670Z,-5.42
2022-12-11T21:04:25.073Z,-5.64
2022-12-11T21:06:51.335Z,-5.40
2022-12-11T21:09:17.658Z,-5.53
2022-12-11T21:11:43.951Z,-5.27
2022-12-11T21:14:10.230Z,-5.31
2022-12-11T21:16:36.658Z,-5.25
2022-12-11T21:19:02.992Z,-5.24
2022-12-11T21:21:29.313Z,-5.27
2022-12-11T21:23:55.673Z,-5.19
2022-12-11T21:26:21.978Z,-5.10
2022-12-11T21:28:48.263Z,-5.17
2022-12-11T21:31:14.650Z,-5.14
2022-12-11T21:33:40.991Z,-5.21
2022-12-11T21:36:07.273Z,-5.73
2022-12-11T21:38:33.561Z,-5.65
2022-12-11T21:40:59.835Z,-5.74
2022-12-11T21:43:26.111Z,-5.53
2022-12-11T21:46:01.170Z,-5.67
2022-12-11T21:48:28.031Z,-5.42
2022-12-11T21:50:54.492Z,-5.18
2022-12-11T21:53:20.763Z,-5.27
2022-12-11T21:55:47.126Z,-5.19
2022-12-11T21:58:13.481Z,-5.41
2022-12-11T22:00:39.759Z,-5.47
2022-12-11T22:03:06.059Z,-5.35
2022-12-11T22:05:32.390Z,-5.24
2022-12-11T22:07:58.706Z,-5.51
2022-12-11T22:10:25.065Z,-5.34
2022-12-11T22:12:51.384Z,-5.73
2022-12-11T22:15:17.657Z,-5.63
2022-12-11T22:17:44.010Z,-5.62
2022-12-11T22:20:10.343Z,-5.49
2022-12-11T22:22:36.656Z,-5.59
2022-12-11T22:25:03.011Z,-5.58
2022-12-11T22:27:29.443Z,-5.73
2022-12-11T22:29:55.672Z,-5.57
2022-12-11T22:32:22.003Z,-5.44
2022-12-11T22:34:48.408Z,-5.33
2022-12-11T22:37:14.669Z,-5.22
2022-12-11T22:39:40.948Z,-5.22
2022-12-11T22:42:07.253Z,-5.27
2022-12-11T22:44:33.524Z,-5.25
2022-12-11T22:46:59.836Z,-5.15
2022-12-11T22:49:26.147Z,-5.06
2022-12-11T22:51:52.412Z,-5.16
2022-12-11T22:54:18.689Z,-5.06
2022-12-11T22:56:44.978Z,-4.97
2022-12-11T22:59:11.283Z,-5.06
2022-12-11T23:01:37.592Z,-5.01
2022-12-11T23:04:03.946Z,-4.91
2022-12-11T23:06:30.766Z,-4.83
2022-12-11T23:08:57.118Z,-5.01
2022-12-11T23:11:23.471Z,-5.02
2022-12-11T23:13:49.720Z,-5.08
2022-12-11T23:16:16.091Z,-4.97
2022-12-11T23:18:42.470Z,-4.91
2022-12-11T23:21:08.805Z,-4.93
2022-12-11T23:23:35.148Z,-5.10
2022-12-11T23:26:01.566Z,-5.09
2022-12-11T23:28:27.814Z,-5.03
2022-12-11T23:30:54.141Z,-5.00
2022-12-11T23:33:20.494Z,-4.93
2022-12-11T23:35:46.796Z,-4.87
2022-12-11T23:38:13.099Z,-4.91
2022-12-11T23:40:39.420Z,-4.87
2022-12-11T23:43:05.704Z,-5.04
2022-12-11T23:45:31.979Z,-4.84
2022-12-11T23:47:58.293Z,-4.96
2022-12-11T23:50:24.596Z,-4.88
2022-12-11T23:52:50.931Z,-5.05
2022-12-11T23:55:17.371Z,-4.93
2022-12-11T23:57:43.643Z,-4.81
